Main page
METAR-TAF:

METAR-TAF

Airports :

Durham, England

Durham Tees Valley Airport

latitude: 54-31N, longitude: 001-25W, elevation: 37 m

Current weather observation

The report was made 29 minutes ago, at 18:50 UTC
Wind 10 kt from the West
Temperature 11°C
Humidity 82%
Pressure 1007 hPa
Visibility 10 km or more
no clouds below 1500 m and no cumulonimbus

METAR: EGNV 201850Z 26010KT CAVOK 11/08 Q1007

Time: 19:19 (19:19 UTC)

Forecast

The report was made 2 hours and 22 minutes ago, at 16:57 UTC
Forecast valid from 20 at 18 UTC to 20 at 22 UTC
Wind 8 kt from the West
Visibility 10 km or more
Few clouds at a height of 3500 ft
Probability 30% :
Temporary
from 20 at 18 UTC to 20 at 22 UTC
Visibility: 8000 m
Broken clouds at a height of 1200 ft
light rain

TAF: EGNV 201657Z 2018/2022 26008KT 9999 FEW035 PROB30 TEMPO 2018/2022 8000 -RA BKN012

Weather observations and forecasts of more than 4000 airports (METAR and TAF reports).

The available stations are represented by yellow and red dots on the map.

Hover mouse over dot to see the name of the station.

Then click to see weather observations and forecasts.

To change the map : click on the green buttons with a black cross to zoom in, on the green button with a dash to zoom out, or on the green arrows for adjacent maps.


METAR-TAF: